createdAt,value
2022-10-22T00:01:00.173Z,4.30
2022-10-22T00:03:28.040Z,4.95
2022-10-22T00:05:55.951Z,4.55
2022-10-22T00:08:25.224Z,4.47
2022-10-22T00:10:53.412Z,4.70
2022-10-22T00:13:21.962Z,4.68
2022-10-22T00:15:50.094Z,4.65
2022-10-22T00:18:17.969Z,4.97
2022-10-22T00:20:45.945Z,5.30
2022-10-22T00:23:14.073Z,5.45
2022-10-22T00:25:43.269Z,5.15
2022-10-22T00:28:11.774Z,4.88
2022-10-22T00:30:39.633Z,4.95
2022-10-22T00:33:07.527Z,5.10
2022-10-22T00:35:35.803Z,4.85
2022-10-22T00:38:03.830Z,4.80
2022-10-22T00:40:31.883Z,5.50
2022-10-22T00:43:01.215Z,4.20
2022-10-22T00:45:30.083Z,4.00
2022-10-22T00:48:02.895Z,5.47
2022-10-22T00:50:35.248Z,4.75
2022-10-22T00:53:05.398Z,4.18
2022-10-22T00:55:34.871Z,4.68
2022-10-22T00:58:05.111Z,4.03
2022-10-22T01:00:33.207Z,3.78
2022-10-22T01:03:01.349Z,4.38
2022-10-22T01:05:31.812Z,4.13
2022-10-22T01:07:59.750Z,4.63
2022-10-22T01:10:53.199Z,3.85
2022-10-22T01:13:35.199Z,4.22
2022-10-22T01:16:11.712Z,4.22
2022-10-22T01:18:46.401Z,3.67
2022-10-22T01:21:24.136Z,4.20
2022-10-22T01:24:14.137Z,4.00
2022-10-22T01:27:10.501Z,4.82
2022-10-22T01:29:43.788Z,4.43
2022-10-22T01:32:16.412Z,4.50
2022-10-22T01:34:47.925Z,4.30
2022-10-22T01:37:16.505Z,4.93
2022-10-22T01:39:46.547Z,4.47
2022-10-22T01:42:14.684Z,4.25
2022-10-22T01:44:44.135Z,4.65
2022-10-22T01:47:20.751Z,4.03
2022-10-22T01:50:21.139Z,4.82
2022-10-22T01:53:10.026Z,4.97
2022-10-22T01:55:44.561Z,5.38
2022-10-22T01:58:23.928Z,5.20
2022-10-22T02:01:01.699Z,4.63
2022-10-22T02:03:36.238Z,5.38
2022-10-22T02:06:08.760Z,4.60
2022-10-22T02:08:37.804Z,4.82
2022-10-22T02:11:06.841Z,4.80
2022-10-22T02:13:38.585Z,4.43
2022-10-22T02:16:10.611Z,4.85
2022-10-22T02:18:41.667Z,5.07
2022-10-22T02:21:10.448Z,5.25
2022-10-22T02:23:38.734Z,4.70
2022-10-22T02:26:13.151Z,5.25
2022-10-22T02:28:47.225Z,4.85
2022-10-22T02:31:22.182Z,5.13
2022-10-22T02:33:54.228Z,5.78
2022-10-22T02:36:23.590Z,6.78
2022-10-22T02:38:53.428Z,6.90
2022-10-22T02:41:21.433Z,6.40
2022-10-22T02:43:52.439Z,6.03
2022-10-22T02:46:21.828Z,5.90
2022-10-22T02:48:49.853Z,6.18
2022-10-22T02:51:17.856Z,5.93
2022-10-22T02:53:45.794Z,5.78
2022-10-22T02:56:14.225Z,6.35
2022-10-22T02:58:42.219Z,5.65
2022-10-22T03:01:12.401Z,5.45
2022-10-22T03:03:44.536Z,5.72
2022-10-22T03:06:12.599Z,5.85
2022-10-22T03:08:41.385Z,5.43
2022-10-22T03:11:09.304Z,5.50
2022-10-22T03:13:37.240Z,6.30
2022-10-22T03:16:05.457Z,6.50
2022-10-22T03:18:33.353Z,5.53
2022-10-22T03:21:10.837Z,5.30
2022-10-22T03:23:39.891Z,6.50
2022-10-22T03:26:09.853Z,5.50
2022-10-22T03:28:38.860Z,6.20
2022-10-22T03:31:07.084Z,6.13
2022-10-22T03:33:34.957Z,5.55
2022-10-22T03:36:04.303Z,5.72
2022-10-22T03:38:32.318Z,5.60
2022-10-22T03:41:00.245Z,6.03
2022-10-22T03:43:28.537Z,6.30
2022-10-22T03:45:56.604Z,6.05
2022-10-22T03:48:24.679Z,6.53
2022-10-22T03:50:52.550Z,6.60
2022-10-22T03:53:22.545Z,6.82
2022-10-22T03:55:50.435Z,6.28
2022-10-22T03:58:18.355Z,5.97
2022-10-22T04:00:46.252Z,6.38
2022-10-22T04:03:14.125Z,7.30
2022-10-22T04:05:42.031Z,6.47
2022-10-22T04:08:10.258Z,6.47
2022-10-22T04:10:39.488Z,6.43
2022-10-22T04:13:07.332Z,6.53
2022-10-22T04:15:35.315Z,6.80
2022-10-22T04:18:03.273Z,6.28
2022-10-22T04:20:31.132Z,6.53
2022-10-22T04:22:58.967Z,6.93
2022-10-22T04:25:27.421Z,6.18
2022-10-22T04:27:56.615Z,6.13
2022-10-22T04:30:24.532Z,6.13
2022-10-22T04:32:52.498Z,6.10
2022-10-22T04:35:20.424Z,5.97
2022-10-22T04:37:48.307Z,6.13
2022-10-22T04:40:16.349Z,6.88
2022-10-22T04:42:44.257Z,5.93
2022-10-22T04:45:15.642Z,6.00
2022-10-22T04:47:43.781Z,5.63
2022-10-22T04:50:11.916Z,5.82
2022-10-22T04:52:39.796Z,6.72
2022-10-22T04:55:08.099Z,5.40
2022-10-22T04:57:36.013Z,5.88
2022-10-22T05:00:04.164Z,6.50
2022-10-22T05:02:33.413Z,6.38
2022-10-22T05:05:01.337Z,6.68
2022-10-22T05:07:29.212Z,6.03
2022-10-22T05:09:57.077Z,6.55
2022-10-22T05:12:26.128Z,6.10
2022-10-22T05:14:53.977Z,6.05
2022-10-22T05:17:21.825Z,6.25
2022-10-22T05:19:51.102Z,5.50
2022-10-22T05:22:18.967Z,5.90
2022-10-22T05:24:46.822Z,6.53
2022-10-22T05:27:14.726Z,6.18
2022-10-22T05:29:42.590Z,6.63
2022-10-22T05:32:10.418Z,6.13
2022-10-22T05:34:38.548Z,6.60
2022-10-22T05:37:07.788Z,5.60
2022-10-22T05:39:36.963Z,6.43
2022-10-22T05:42:05.247Z,5.93
2022-10-22T05:44:33.266Z,5.78
2022-10-22T05:47:01.119Z,6.32
2022-10-22T05:49:29.125Z,6.22
2022-10-22T05:51:56.964Z,6.18
2022-10-22T05:54:26.200Z,6.30
2022-10-22T05:56:56.446Z,6.15
2022-10-22T05:59:24.419Z,5.78
2022-10-22T06:01:52.369Z,5.13
2022-10-22T06:04:20.321Z,5.53
2022-10-22T06:06:50.115Z,5.47
2022-10-22T06:09:21.081Z,6.20
2022-10-22T06:11:51.789Z,5.80
2022-10-22T06:14:20.546Z,5.85
2022-10-22T06:16:48.617Z,5.95
2022-10-22T06:19:19.112Z,6.03
2022-10-22T06:21:47.119Z,5.97
2022-10-22T06:24:15.281Z,5.90
2022-10-22T06:26:43.218Z,5.65
2022-10-22T06:29:12.519Z,6.07
2022-10-22T06:31:40.517Z,7.20
2022-10-22T06:34:11.284Z,5.53
2022-10-22T06:36:39.376Z,5.40
2022-10-22T06:39:07.406Z,4.85
2022-10-22T06:41:35.377Z,5.20
2022-10-22T06:44:03.363Z,5.88
2022-10-22T06:46:32.780Z,5.40
2022-10-22T06:49:03.000Z,5.63
2022-10-22T06:51:30.977Z,5.20
2022-10-22T06:53:59.554Z,4.78
2022-10-22T06:56:29.511Z,5.53
2022-10-22T06:58:59.070Z,5.05
2022-10-22T07:01:28.856Z,4.72
2022-10-22T07:03:58.728Z,5.95
2022-10-22T07:06:28.107Z,5.22
2022-10-22T07:08:57.390Z,5.88
2022-10-22T07:11:28.120Z,5.10
2022-10-22T07:13:56.782Z,4.90
2022-10-22T07:16:29.527Z,5.20
2022-10-22T07:19:01.791Z,5.45
2022-10-22T07:21:30.727Z,5.63
2022-10-22T07:23:59.079Z,5.35
2022-10-22T07:26:30.862Z,5.28
2022-10-22T07:28:59.448Z,5.00
2022-10-22T07:31:27.421Z,5.28
2022-10-22T07:33:55.388Z,5.05
2022-10-22T07:36:24.634Z,5.38
2022-10-22T07:38:56.500Z,5.03
2022-10-22T07:41:24.952Z,5.28
2022-10-22T07:43:53.196Z,5.10
2022-10-22T07:46:21.744Z,4.85
2022-10-22T07:48:49.896Z,5.00
2022-10-22T07:51:18.584Z,4.88
2022-10-22T07:53:47.857Z,4.97
2022-10-22T07:56:15.856Z,4.18
2022-10-22T07:58:43.849Z,5.00
2022-10-22T08:01:11.795Z,4.68
2022-10-22T08:03:39.756Z,4.50
2022-10-22T08:06:08.285Z,5.00
2022-10-22T08:08:36.340Z,3.90
2022-10-22T08:11:05.819Z,4.13
2022-10-22T08:13:33.723Z,3.70
2022-10-22T08:16:01.978Z,4.57
2022-10-22T08:18:30.513Z,4.43
2022-10-22T08:20:58.804Z,4.35
2022-10-22T08:23:28.711Z,4.35
2022-10-22T08:25:57.705Z,4.13
2022-10-22T08:28:28.761Z,4.60
2022-10-22T08:30:56.776Z,3.30
2022-10-22T08:33:24.669Z,4.28
2022-10-22T08:35:53.540Z,3.78
2022-10-22T08:38:21.693Z,3.67
2022-10-22T08:40:52.529Z,3.30
2022-10-22T08:44:08.107Z,3.60
2022-10-22T08:49:18.371Z,3.00
2022-10-22T08:51:46.377Z,3.05
2022-10-22T08:54:26.077Z,3.15
2022-10-22T08:57:07.924Z,3.83
2022-10-22T08:59:42.753Z,3.35
2022-10-22T09:02:28.050Z,3.78
2022-10-22T09:05:03.196Z,3.08
2022-10-22T09:07:31.248Z,3.08
2022-10-22T09:10:01.395Z,2.72
2022-10-22T09:12:29.829Z,2.75
2022-10-22T09:14:59.048Z,3.72
2022-10-22T09:17:35.784Z,2.90
2022-10-22T09:20:10.912Z,3.08
2022-10-22T09:22:47.281Z,3.47
2022-10-22T09:25:21.077Z,3.03
2022-10-22T09:27:49.744Z,3.33
2022-10-22T09:30:20.790Z,3.20
2022-10-22T09:32:51.861Z,2.40
2022-10-22T09:35:24.168Z,3.20
2022-10-22T09:37:55.590Z,2.85
2022-10-22T09:40:24.995Z,3.38
2022-10-22T09:42:52.878Z,3.03
2022-10-22T09:45:26.034Z,2.60
2022-10-22T09:48:10.708Z,3.40
2022-10-22T09:50:44.526Z,2.92
2022-10-22T09:53:20.699Z,2.83
2022-10-22T09:58:22.237Z,3.13
2022-10-22T10:00:54.634Z,2.70
2022-10-22T10:03:25.939Z,3.90
2022-10-22T10:05:57.350Z,3.35
2022-10-22T10:08:27.599Z,2.83
2022-10-22T10:11:00.418Z,3.35
2022-10-22T10:13:47.189Z,2.70
2022-10-22T10:16:39.049Z,3.65
2022-10-22T10:19:28.559Z,2.72
2022-10-22T10:22:05.148Z,3.85
2022-10-22T10:24:44.049Z,2.85
2022-10-22T10:27:16.298Z,2.80
2022-10-22T10:29:55.649Z,3.10
2022-10-22T10:32:48.191Z,2.60
2022-10-22T10:35:22.844Z,2.80
2022-10-22T10:38:06.663Z,2.60
2022-10-22T10:40:44.748Z,2.63
2022-10-22T10:43:18.215Z,2.90
2022-10-22T10:45:56.346Z,2.38
2022-10-22T10:48:42.917Z,2.58
2022-10-22T10:51:24.972Z,2.25
2022-10-22T10:54:04.904Z,2.65
2022-10-22T10:56:40.041Z,2.55
2022-10-22T10:59:18.927Z,3.80
2022-10-22T11:02:03.900Z,2.33
2022-10-22T11:04:51.297Z,2.63
2022-10-22T11:07:34.330Z,2.97
2022-10-22T11:10:23.953Z,3.58
2022-10-22T11:12:54.136Z,21.92
2022-10-22T11:15:28.657Z,4.65
2022-10-22T11:18:02.530Z,4.82
2022-10-22T11:20:42.128Z,5.82
2022-10-22T11:23:20.876Z,4.55
2022-10-22T11:25:51.490Z,5.05
2022-10-22T11:28:24.900Z,3.35
2022-10-22T11:30:59.251Z,3.40
2022-10-22T11:33:33.850Z,1.75
2022-10-22T11:36:04.921Z,6.38
2022-10-22T11:38:35.757Z,4.93
2022-10-22T11:41:07.246Z,4.82
2022-10-22T11:43:36.780Z,3.30
2022-10-22T11:46:25.678Z,2.38
2022-10-22T11:49:05.434Z,1.85
2022-10-22T11:51:36.458Z,1.80
2022-10-22T11:54:27.784Z,1.90
2022-10-22T11:57:17.234Z,2.13
2022-10-22T11:59:50.678Z,2.15
2022-10-22T12:02:41.194Z,2.28
2022-10-22T12:05:37.162Z,2.30
2022-10-22T12:08:27.869Z,2.85
2022-10-22T12:11:13.243Z,2.17
2022-10-22T12:14:20.084Z,2.00
2022-10-22T12:16:57.216Z,2.20
2022-10-22T12:19:28.778Z,1.98
2022-10-22T12:21:59.708Z,2.05
2022-10-22T12:24:33.691Z,2.40
2022-10-22T12:27:01.597Z,2.05
2022-10-22T12:29:32.479Z,2.42
2022-10-22T12:32:04.509Z,2.08
2022-10-22T12:34:32.424Z,2.72
2022-10-22T12:37:00.284Z,1.85
2022-10-22T12:39:30.043Z,1.88
2022-10-22T12:41:57.975Z,1.95
2022-10-22T12:44:25.889Z,1.95
2022-10-22T12:46:56.879Z,2.55
2022-10-22T12:49:32.869Z,2.22
2022-10-22T12:52:04.056Z,2.30
2022-10-22T12:54:35.414Z,2.05
2022-10-22T12:57:03.685Z,3.20
2022-10-22T12:59:36.413Z,2.10
2022-10-22T13:02:09.039Z,1.90
2022-10-22T13:04:39.481Z,2.65
2022-10-22T13:07:21.315Z,3.10
2022-10-22T13:09:59.487Z,2.47
2022-10-22T13:12:28.953Z,3.30
2022-10-22T13:14:56.815Z,2.53
2022-10-22T13:17:40.779Z,3.00
2022-10-22T13:20:19.141Z,2.45
2022-10-22T13:23:00.435Z,2.30
2022-10-22T13:25:31.914Z,2.25
2022-10-22T13:28:01.927Z,2.88
2022-10-22T13:30:34.714Z,2.92
2022-10-22T13:33:05.137Z,2.53
2022-10-22T13:35:35.207Z,2.55
2022-10-22T13:38:03.497Z,2.60
2022-10-22T13:40:32.723Z,2.70
2022-10-22T13:43:00.684Z,2.67
2022-10-22T13:45:28.666Z,2.58
2022-10-22T13:47:57.155Z,2.65
2022-10-22T13:50:25.041Z,2.67
2022-10-22T13:52:55.168Z,2.78
2022-10-22T13:55:26.027Z,2.60
2022-10-22T13:57:57.337Z,2.85
2022-10-22T14:00:26.171Z,3.50
2022-10-22T14:02:58.285Z,3.45
2022-10-22T14:05:26.390Z,3.03
2022-10-22T14:07:54.544Z,2.97
2022-10-22T14:10:24.594Z,2.90
2022-10-22T14:12:53.919Z,3.00
2022-10-22T14:15:25.054Z,3.45
2022-10-22T14:17:57.485Z,2.33
2022-10-22T14:20:27.817Z,2.67
2022-10-22T14:22:55.744Z,2.72
2022-10-22T14:25:25.965Z,3.35
2022-10-22T14:27:54.082Z,2.70
2022-10-22T14:30:29.685Z,2.70
2022-10-22T14:32:59.622Z,2.55
2022-10-22T14:35:27.503Z,2.80
2022-10-22T14:37:55.402Z,3.47
2022-10-22T14:40:23.420Z,7.03
2022-10-22T14:42:52.380Z,5.32
2022-10-22T14:45:24.481Z,4.35
2022-10-22T14:47:54.892Z,3.95
2022-10-22T14:50:23.174Z,2.53
2022-10-22T14:52:51.296Z,3.72
2022-10-22T14:55:20.511Z,2.70
2022-10-22T14:57:48.377Z,3.70
2022-10-22T15:00:18.317Z,3.00
2022-10-22T15:02:49.007Z,2.50
2022-10-22T15:05:17.491Z,2.60
2022-10-22T15:07:45.675Z,2.35
2022-10-22T15:10:13.823Z,2.65
2022-10-22T15:12:41.923Z,2.95
2022-10-22T15:15:10.511Z,2.30
2022-10-22T15:17:38.596Z,2.45
2022-10-22T15:20:08.768Z,2.00
2022-10-22T15:22:38.237Z,2.70
2022-10-22T15:25:08.421Z,2.33
2022-10-22T15:27:36.856Z,2.42
2022-10-22T15:30:05.425Z,2.50
2022-10-22T15:32:34.111Z,2.50
2022-10-22T15:35:02.480Z,2.78
2022-10-22T15:37:31.897Z,2.25
2022-10-22T15:40:00.660Z,2.65
2022-10-22T15:42:28.510Z,2.83
2022-10-22T15:44:59.911Z,2.95
2022-10-22T15:47:29.655Z,2.40
2022-10-22T15:49:57.659Z,2.58
2022-10-22T15:52:25.591Z,2.63
2022-10-22T15:54:55.015Z,2.70
2022-10-22T15:57:22.854Z,2.75
2022-10-22T15:59:51.968Z,2.00
2022-10-22T16:02:19.897Z,2.80
2022-10-22T16:04:48.015Z,2.88
2022-10-22T16:07:17.273Z,2.50
2022-10-22T16:09:45.993Z,2.60
2022-10-22T16:12:17.242Z,2.25
2022-10-22T16:14:45.379Z,2.63
2022-10-22T16:17:13.286Z,2.60
2022-10-22T16:19:41.170Z,2.67
2022-10-22T16:22:11.544Z,2.58
2022-10-22T16:24:40.412Z,3.50
2022-10-22T16:27:09.023Z,2.58
2022-10-22T16:29:40.190Z,2.97
2022-10-22T16:32:08.137Z,3.00
2022-10-22T16:34:36.003Z,2.60
2022-10-22T16:37:10.223Z,2.65
2022-10-22T16:39:38.882Z,3.83
2022-10-22T16:42:07.145Z,3.15
2022-10-22T16:44:35.147Z,3.78
2022-10-22T16:47:04.351Z,3.65
2022-10-22T16:49:32.192Z,3.00
2022-10-22T16:52:00.079Z,3.08
2022-10-22T16:54:28.045Z,3.17
2022-10-22T16:56:55.910Z,3.40
2022-10-22T16:59:23.831Z,3.58
2022-10-22T17:01:51.846Z,3.38
2022-10-22T17:04:21.835Z,3.22
2022-10-22T17:06:49.798Z,3.83
2022-10-22T17:09:17.725Z,4.32
2022-10-22T17:11:45.693Z,4.30
2022-10-22T17:14:13.570Z,4.90
2022-10-22T17:16:41.430Z,5.82
2022-10-22T17:19:11.741Z,5.93
2022-10-22T17:21:40.981Z,6.88
2022-10-22T17:24:09.127Z,6.30
2022-10-22T17:26:37.547Z,6.03
2022-10-22T17:29:05.504Z,6.60
2022-10-22T17:31:37.204Z,6.60
2022-10-22T17:34:07.298Z,8.43
2022-10-22T17:36:36.293Z,7.85
2022-10-22T17:39:07.630Z,10.32
2022-10-22T17:41:37.837Z,12.18
2022-10-22T17:44:12.207Z,13.65
2022-10-22T17:46:40.181Z,12.95
2022-10-22T17:49:16.173Z,12.80
2022-10-22T17:51:44.578Z,14.10
2022-10-22T17:54:14.744Z,14.85
2022-10-22T17:56:42.620Z,14.50
2022-10-22T17:59:14.651Z,13.02
2022-10-22T18:01:45.715Z,14.07
2022-10-22T18:04:16.213Z,14.23
2022-10-22T18:06:45.155Z,13.30
2022-10-22T18:09:18.431Z,13.15
2022-10-22T18:11:47.853Z,14.07
2022-10-22T18:14:16.042Z,14.65
2022-10-22T18:16:43.905Z,14.75
2022-10-22T18:19:13.492Z,13.63
2022-10-22T18:21:41.317Z,13.50
2022-10-22T18:24:10.746Z,13.75
2022-10-22T18:26:40.058Z,13.68
2022-10-22T18:29:08.148Z,13.15
2022-10-22T18:31:35.992Z,11.43
2022-10-22T18:34:03.876Z,12.43
2022-10-22T18:36:31.773Z,11.88
2022-10-22T18:39:00.911Z,11.43
2022-10-22T18:41:30.061Z,13.00
2022-10-22T18:44:01.241Z,12.40
2022-10-22T18:46:30.594Z,12.52
2022-10-22T18:48:59.883Z,12.98
2022-10-22T18:51:31.649Z,14.45
2022-10-22T18:54:11.339Z,14.30
2022-10-22T18:56:46.039Z,15.38
2022-10-22T18:59:18.791Z,15.07
2022-10-22T19:01:46.727Z,17.83
2022-10-22T19:04:14.818Z,17.73
2022-10-22T19:06:45.740Z,16.85
2022-10-22T19:09:14.810Z,16.65
2022-10-22T19:11:44.051Z,17.50
2022-10-22T19:14:12.103Z,17.77
2022-10-22T19:16:41.394Z,18.02
2022-10-22T19:19:09.515Z,18.65
2022-10-22T19:21:38.773Z,18.80
2022-10-22T19:24:07.560Z,22.27
2022-10-22T19:26:35.624Z,23.40
2022-10-22T19:29:03.980Z,25.23
2022-10-22T19:31:32.244Z,27.88
2022-10-22T19:34:02.947Z,28.77
2022-10-22T19:36:32.745Z,24.75
2022-10-22T19:39:01.756Z,23.02
2022-10-22T19:41:31.394Z,21.25
2022-10-22T19:44:00.653Z,22.20
2022-10-22T19:46:30.037Z,21.00
2022-10-22T19:48:57.969Z,21.13
2022-10-22T19:51:30.750Z,21.58
2022-10-22T19:54:00.135Z,19.95
2022-10-22T19:56:28.988Z,18.27
2022-10-22T19:58:56.862Z,18.02
2022-10-22T20:01:25.081Z,17.33
2022-10-22T20:03:53.588Z,16.65
2022-10-22T20:06:22.055Z,16.10
2022-10-22T20:08:55.143Z,15.90
2022-10-22T20:13:52.944Z,14.18
2022-10-22T20:16:23.562Z,13.07
2022-10-22T20:18:51.548Z,13.70
2022-10-22T20:21:20.384Z,13.40
2022-10-22T20:23:49.009Z,14.90
2022-10-22T20:26:18.225Z,12.20
2022-10-22T20:28:46.106Z,12.93
2022-10-22T20:31:17.294Z,12.18
2022-10-22T20:33:45.189Z,12.52
2022-10-22T20:36:17.301Z,11.07
2022-10-22T20:38:47.908Z,10.55
2022-10-22T20:41:19.135Z,11.23
2022-10-22T20:43:47.595Z,11.00
2022-10-22T20:46:19.021Z,10.98
2022-10-22T20:48:47.102Z,11.07
2022-10-22T20:51:15.099Z,12.00
2022-10-22T20:53:43.417Z,12.05
2022-10-22T20:56:11.665Z,11.38
2022-10-22T20:58:46.330Z,12.68
2022-10-22T21:01:20.483Z,11.38
2022-10-22T21:06:16.617Z,11.30
2022-10-22T21:08:44.573Z,11.52
2022-10-22T21:11:12.632Z,12.20
2022-10-22T21:13:41.927Z,11.70
2022-10-22T21:16:11.021Z,11.85
2022-10-22T21:18:39.044Z,10.82
2022-10-22T21:21:07.724Z,11.85
2022-10-22T21:23:37.264Z,11.25
2022-10-22T21:26:06.131Z,11.32
2022-10-22T21:28:35.749Z,11.32
2022-10-22T21:31:06.672Z,10.70
2022-10-22T21:33:37.148Z,11.15
2022-10-22T21:36:05.953Z,10.55
2022-10-22T21:38:34.160Z,10.27
2022-10-22T21:41:05.492Z,10.73
2022-10-22T21:43:33.419Z,10.98
2022-10-22T21:46:08.278Z,10.93
2022-10-22T21:48:36.765Z,10.48
2022-10-22T21:51:09.034Z,10.93
2022-10-22T21:53:37.383Z,11.30
2022-10-22T21:56:06.826Z,10.13
2022-10-22T21:58:35.769Z,11.43
2022-10-22T22:01:04.744Z,11.15
2022-10-22T22:03:34.217Z,10.90
2022-10-22T22:06:04.143Z,10.60
2022-10-22T22:08:32.554Z,10.57
2022-10-22T22:11:04.772Z,10.65
2022-10-22T22:13:33.700Z,10.30
2022-10-22T22:16:02.654Z,11.10
2022-10-22T22:18:31.060Z,10.75
2022-10-22T22:21:01.125Z,9.88
2022-10-22T22:23:29.002Z,10.10
2022-10-22T22:26:00.086Z,10.10
2022-10-22T22:28:29.579Z,9.73
2022-10-22T22:30:57.552Z,9.57
2022-10-22T22:33:25.638Z,9.15
2022-10-22T22:35:53.712Z,9.48
2022-10-22T22:38:22.938Z,9.05
2022-10-22T22:40:50.842Z,9.55
2022-10-22T22:43:18.957Z,9.02
2022-10-22T22:45:46.859Z,9.50
2022-10-22T22:48:14.724Z,10.63
2022-10-22T22:50:42.686Z,11.02
2022-10-22T22:53:10.552Z,10.70
2022-10-22T22:55:39.842Z,10.95
2022-10-22T22:58:07.778Z,10.80
2022-10-22T23:00:35.705Z,12.35
2022-10-22T23:03:03.621Z,12.95
2022-10-22T23:05:31.762Z,13.48
2022-10-22T23:07:59.731Z,13.73
2022-10-22T23:10:27.591Z,13.23
2022-10-22T23:12:56.885Z,13.40
2022-10-22T23:15:24.749Z,13.20
2022-10-22T23:17:52.730Z,13.98
2022-10-22T23:20:20.783Z,15.07
2022-10-22T23:22:48.678Z,15.05
2022-10-22T23:25:16.642Z,15.07
2022-10-22T23:27:44.828Z,15.02
2022-10-22T23:30:15.838Z,16.42
2022-10-22T23:32:43.678Z,16.23
2022-10-22T23:35:11.582Z,14.43
2022-10-22T23:37:39.519Z,14.35
2022-10-22T23:40:08.632Z,14.63
2022-10-22T23:42:36.519Z,13.10
2022-10-22T23:45:04.652Z,12.75
2022-10-22T23:47:34.020Z,12.88
2022-10-22T23:50:01.959Z,11.38
2022-10-22T23:52:29.831Z,10.50
2022-10-22T23:54:57.658Z,10.32
2022-10-22T23:57:25.497Z,10.05
2022-10-22T23:59:54.531Z,10.77
